Wheatley, United Kingdom
Current Conditions -  °F | °C
As of 12:50 PM on Thursday 30 Oct 2014 (Local Time) from EGTK Reporting Station
Broken Clouds Broken Clouds  
Wind Chill: 63°   Ceiling: 2100
Heat Index: 63°   Visibility: 6mi
Dew Point: 61°   Wind: 9mph
Humidity: 94%   Direction: 200°SSW
Pressure: 30.03"   Gusts: NA
Location:  51.75°N, 1.14°W
Report Text: EGTK 301250Z 20008KT 180V240 9999 FEW013 SCT015 BKN021 17/16 Q1017
Loading
Personal Weather Stations






























Interactive Weather Map New forecast layout! Learn more

10-Day Weather Forecast

Advertisements
Track Severe Weather on mobile